Time;durP1;ratioP1;P1;durP2;ratioP2;P2;SDS_P1;SDS_P2;PMS_P1;PMS_P2;Temp;Humidity;BMP_temperature;BMP_pressure;BME280_temperature;BME280_humidity;BME280_pressure;Samples;Min_cycle;Max_cycle;Signal;HPM_P1;HPM_P2
2021/01/18 00:00:55;;;;;;;22.53;14.37;;;1.10;70.00;;;;;;5058920;28;20107;-82
2021/01/18 00:03:21;;;;;;;24.90;16.60;;;1.10;70.00;;;;;;5061694;28;20032;-82
2021/01/18 00:05:46;;;;;;;24.10;14.93;;;1.20;70.10;;;;;;5072293;28;20044;-82
2021/01/18 00:08:12;;;;;;;25.43;16.80;;;1.20;70.10;;;;;;5066704;28;20028;-82
2021/01/18 00:10:38;;;;;;;21.67;15.23;;;1.10;70.30;;;;;;5069289;28;20029;-82
2021/01/18 00:13:04;;;;;;;19.83;13.73;;;1.20;70.20;;;;;;5065469;28;20491;-82
2021/01/18 00:15:29;;;;;;;19.33;13.87;;;1.30;70.20;;;;;;5071236;28;20391;-82
2021/01/18 00:17:55;;;;;;;18.63;12.93;;;1.20;69.80;;;;;;5072990;28;20017;-82
2021/01/18 00:20:22;;;;;;;21.00;14.17;;;1.20;70.30;;;;;;5068597;28;20020;-82
2021/01/18 00:22:48;;;;;;;17.77;13.07;;;1.30;70.20;;;;;;5065878;28;20020;-82
2021/01/18 00:25:23;;;;;;;18.73;13.80;;;1.30;69.90;;;;;;5071842;28;20033;-82
2021/01/18 00:27:50;;;;;;;18.03;12.30;;;1.20;69.90;;;;;;5070410;28;20059;-82
2021/01/18 00:30:24;;;;;;;19.57;13.90;;;1.20;70.00;;;;;;5069338;28;20290;-82
2021/01/18 00:32:50;;;;;;;19.27;13.23;;;1.20;70.30;;;;;;5066983;28;20380;-82
2021/01/18 00:35:18;;;;;;;21.07;14.17;;;1.30;70.20;;;;;;5065652;28;20322;-82
2021/01/18 00:37:52;;;;;;;23.37;15.47;;;1.30;70.00;;;;;;5072847;28;20090;-82
2021/01/18 00:40:22;;;;;;;25.00;16.63;;;1.30;69.90;;;;;;5064534;28;20096;-82
2021/01/18 00:42:49;;;;;;;24.63;16.10;;;1.30;69.80;;;;;;5071157;28;20700;-82
2021/01/18 00:45:16;;;;;;;21.57;15.80;;;1.30;69.80;;;;;;5067357;28;20385;-82
2021/01/18 00:47:47;;;;;;;22.67;16.23;;;1.20;69.90;;;;;;5062211;28;20032;-82
2021/01/18 00:50:17;;;;;;;25.13;16.97;;;1.20;70.10;;;;;;5072096;28;20114;-82
2021/01/18 00:52:45;;;;;;;24.40;16.53;;;1.20;70.10;;;;;;5074185;28;20318;-82
2021/01/18 00:55:12;;;;;;;24.00;15.63;;;1.30;70.10;;;;;;5072449;28;20278;-82
2021/01/18 00:57:38;;;;;;;18.93;13.87;;;1.30;70.10;;;;;;5089001;28;20040;-82
2021/01/18 01:00:24;;;;;;;22.53;16.43;;;1.30;70.00;;;;;;5061653;28;20029;-83
2021/01/18 01:02:51;;;;;;;31.00;14.80;;;1.30;70.20;;;;;;5068893;28;20304;-83
2021/01/18 01:05:22;;;;;;;22.73;14.93;;;1.30;70.10;;;;;;5070461;28;20686;-83
2021/01/18 01:07:51;;;;;;;20.97;14.93;;;1.30;70.10;;;;;;5074380;28;20020;-83
2021/01/18 01:10:22;;;;;;;24.33;16.13;;;1.30;70.10;;;;;;5068586;28;20016;-83
2021/01/18 01:12:58;;;;;;;21.20;15.53;;;1.40;70.00;;;;;;5071828;28;22153;-83
2021/01/18 01:15:24;;;;;;;24.00;15.67;;;1.20;69.90;;;;;;5065174;28;20513;-83
2021/01/18 01:17:50;;;;;;;22.20;16.13;;;1.20;70.50;;;;;;5068019;28;20025;-83
2021/01/18 01:20:18;;;;;;;19.90;15.20;;;1.20;70.50;;;;;;5062392;28;20080;-83
2021/01/18 01:22:44;;;;;;;22.93;16.03;;;1.20;70.60;;;;;;5062486;28;20356;-82
2021/01/18 01:25:13;;;;;;;24.63;15.50;;;1.20;70.40;;;;;;5066152;28;20382;-82
2021/01/18 01:27:40;;;;;;;21.77;15.80;;;1.20;70.50;;;;;;5073648;28;20082;-82
2021/01/18 01:30:08;;;;;;;25.37;15.63;;;1.20;70.50;;;;;;5061582;28;20048;-82
2021/01/18 01:32:36;;;;;;;21.43;16.03;;;1.20;70.50;;;;;;5062624;28;20029;-82
2021/01/18 01:35:03;;;;;;;24.23;15.73;;;1.20;70.50;;;;;;5075416;28;20028;-82
2021/01/18 01:37:29;;;;;;;21.93;15.17;;;1.30;70.50;;;;;;5061027;28;20025;-82
2021/01/18 01:39:54;;;;;;;27.27;19.03;;;1.30;70.60;;;;;;5060223;28;20029;-82
2021/01/18 01:42:24;;;;;;;24.50;17.60;;;1.30;70.50;;;;;;5062673;28;20033;-83
2021/01/18 01:44:51;;;;;;;23.80;14.13;;;1.30;70.50;;;;;;5066255;28;20029;-83
2021/01/18 01:47:31;;;;;;;22.77;15.50;;;1.30;70.70;;;;;;5067343;28;21320;-83
2021/01/18 01:50:00;;;;;;;23.30;15.87;;;1.30;70.80;;;;;;5076360;28;20055;-83
2021/01/18 01:52:29;;;;;;;26.00;15.73;;;1.30;70.70;;;;;;5072045;28;20045;-83
2021/01/18 01:54:58;;;;;;;21.17;13.53;;;1.20;70.50;;;;;;5071713;28;20282;-83
2021/01/18 01:57:25;;;;;;;21.50;14.30;;;1.20;70.80;;;;;;5081712;28;20035;-80
2021/01/18 01:59:51;;;;;;;18.33;13.63;;;1.20;70.80;;;;;;5075941;28;20306;-80
2021/01/18 02:02:17;;;;;;;20.70;14.47;;;1.20;70.70;;;;;;5073768;28;20437;-80
2021/01/18 02:04:46;;;;;;;21.27;14.63;;;1.20;71.00;;;;;;5071691;28;20041;-80
2021/01/18 02:07:25;;;;;;;18.90;13.47;;;1.30;70.90;;;;;;5083851;28;20019;-80
2021/01/18 02:09:53;;;;;;;25.60;15.70;;;1.30;70.80;;;;;;5084544;28;20032;-80
2021/01/18 02:12:19;;;;;;;20.67;15.07;;;1.30;70.50;;;;;;5086643;28;20029;-80
2021/01/18 02:15:13;;;;;;;20.63;15.33;;;1.30;70.70;;;;;;5084458;28;20024;-80
2021/01/18 02:18:16;;;;;;;24.77;17.10;;;1.30;70.80;;;;;;5068183;28;20036;-80
2021/01/18 02:21:04;;;;;;;24.48;17.50;;;1.30;70.70;;;;;;5094442;28;20270;-80
2021/01/18 02:23:43;;;;;;;23.00;15.87;;;1.30;70.50;;;;;;5062375;28;20037;-80
2021/01/18 02:26:15;;;;;;;22.53;15.47;;;1.10;70.70;;;;;;5088419;28;20699;-80
2021/01/18 02:29:25;;;;;;;22.98;16.02;;;1.20;71.20;;;;;;5071577;28;20550;-80
2021/01/18 02:32:35;;;;;;;23.60;15.93;;;1.20;71.10;;;;;;5056203;28;20040;-80
2021/01/18 02:35:16;;;;;;;22.67;14.83;;;1.20;70.90;;;;;;5067230;28;20024;-80
2021/01/18 02:38:06;;;;;;;23.40;16.03;;;1.20;70.80;;;;;;5068824;28;20324;-80
2021/01/18 02:40:59;;;;;;;24.60;15.57;;;1.20;71.10;;;;;;5063975;28;20039;-80
2021/01/18 02:43:33;;;;;;;21.60;14.93;;;1.20;71.30;;;;;;5063370;28;20017;-80
2021/01/18 02:46:03;;;;;;;23.57;15.30;;;1.30;71.10;;;;;;5067103;28;20283;-80
2021/01/18 02:48:30;;;;;;;22.63;14.67;;;1.30;71.00;;;;;;5072269;28;20383;-80
2021/01/18 02:51:01;;;;;;;21.27;14.20;;;1.30;70.90;;;;;;5072654;28;20025;-80
2021/01/18 02:53:28;;;;;;;24.20;16.20;;;1.30;70.90;;;;;;5064274;28;20021;-80
2021/01/18 02:55:53;;;;;;;23.90;15.20;;;1.40;71.00;;;;;;5067591;28;20024;-80
2021/01/18 02:58:22;;;;;;;20.10;14.77;;;1.30;70.80;;;;;;5067985;28;20017;-80
2021/01/18 03:01:03;;;;;;;21.33;14.60;;;1.30;71.10;;;;;;5065335;28;20039;-80
2021/01/18 03:03:44;;;;;;;22.97;14.97;;;1.30;71.10;;;;;;5066287;28;20080;-80
2021/01/18 03:06:29;;;;;;;20.33;14.90;;;1.40;71.30;;;;;;5068310;28;20045;-80
2021/01/18 03:09:06;;;;;;;20.57;14.80;;;1.40;71.30;;;;;;5066539;28;20036;-81
2021/01/18 03:11:37;;;;;;;20.60;14.43;;;1.40;71.20;;;;;;5079644;28;20329;-81
2021/01/18 03:14:16;;;;;;;18.43;13.03;;;1.50;71.10;;;;;;5077816;28;20029;-81
2021/01/18 03:16:45;;;;;;;20.97;14.97;;;1.50;71.20;;;;;;5066220;28;20020;-81
2021/01/18 03:19:13;;;;;;;22.27;14.00;;;1.50;71.20;;;;;;5060565;28;20017;-81
2021/01/18 03:21:48;;;;;;;19.73;14.20;;;1.50;71.20;;;;;;5067015;28;20089;-81
2021/01/18 03:24:23;;;;;;;21.40;15.10;;;1.50;71.10;;;;;;5068529;28;20032;-81
2021/01/18 03:26:49;;;;;;;22.63;14.73;;;1.50;71.10;;;;;;5063402;28;20028;-81
2021/01/18 03:29:15;;;;;;;24.00;15.57;;;1.50;71.10;;;;;;5055988;28;20032;-81
2021/01/18 03:31:41;;;;;;;19.23;13.80;;;1.50;71.10;;;;;;5067881;28;20041;-81
2021/01/18 03:34:07;;;;;;;19.83;13.77;;;1.40;71.30;;;;;;5057613;28;20067;-80
2021/01/18 03:36:33;;;;;;;19.57;14.40;;;1.50;71.50;;;;;;5070366;28;20374;-80
2021/01/18 03:38:59;;;;;;;22.30;14.87;;;1.50;71.40;;;;;;5054396;28;20043;-81
2021/01/18 03:41:25;;;;;;;20.30;14.90;;;1.50;71.40;;;;;;5068407;28;20029;-80
2021/01/18 03:43:50;;;;;;;21.20;14.43;;;1.50;71.40;;;;;;5057768;28;20029;-81
2021/01/18 03:46:16;;;;;;;20.23;15.00;;;1.50;71.40;;;;;;5064941;28;20025;-81
2021/01/18 03:48:42;;;;;;;21.73;13.93;;;1.50;71.40;;;;;;5042221;28;20052;-81
2021/01/18 03:51:07;;;;;;;18.47;13.10;;;1.50;71.30;;;;;;5062149;28;20032;-81
2021/01/18 03:53:33;;;;;;;19.00;13.53;;;1.50;71.70;;;;;;5064967;28;20024;-81
2021/01/18 03:55:59;;;;;;;17.47;13.70;;;1.50;71.60;;;;;;5071130;28;20028;-80
2021/01/18 03:58:24;;;;;;;20.97;14.03;;;1.50;71.60;;;;;;5059815;28;20025;-80
2021/01/18 04:00:50;;;;;;;20.13;15.03;;;1.50;71.50;;;;;;5061440;28;20020;-80
2021/01/18 04:03:19;;;;;;;25.53;16.97;;;1.50;71.40;;;;;;5066065;28;20028;-80
2021/01/18 04:05:45;;;;;;;25.77;18.97;;;1.50;71.30;;;;;;5066407;28;20119;-80
2021/01/18 04:08:11;;;;;;;24.30;17.80;;;1.50;71.40;;;;;;5066029;28;20128;-80
2021/01/18 04:10:37;;;;;;;27.53;18.87;;;1.60;71.30;;;;;;5061973;28;20116;-80
2021/01/18 04:13:02;;;;;;;25.03;18.07;;;1.60;71.30;;;;;;5071148;28;20025;-80
2021/01/18 04:15:28;;;;;;;24.83;16.53;;;1.50;71.10;;;;;;5065268;28;20029;-80
2021/01/18 04:17:56;;;;;;;21.23;15.50;;;1.50;71.30;;;;;;5069245;28;20024;-80
2021/01/18 04:20:23;;;;;;;23.77;17.07;;;1.50;71.60;;;;;;5066082;28;20005;-80
2021/01/18 04:22:50;;;;;;;24.23;15.13;;;1.60;71.80;;;;;;5068076;28;20388;-81
2021/01/18 04:25:18;;;;;;;21.93;15.43;;;1.60;71.70;;;;;;5066993;28;20017;-81
2021/01/18 04:27:46;;;;;;;23.57;16.93;;;1.70;71.60;;;;;;5059069;28;20032;-81
2021/01/18 04:30:12;;;;;;;28.80;18.03;;;1.70;71.40;;;;;;5066410;28;20063;-81
2021/01/18 04:32:37;;;;;;;22.60;16.13;;;1.70;71.30;;;;;;5064656;28;20212;-81
2021/01/18 04:35:03;;;;;;;24.87;16.83;;;1.70;71.40;;;;;;5063285;28;20067;-81
2021/01/18 04:37:33;;;;;;;23.10;16.83;;;1.70;71.30;;;;;;5053702;28;20020;-81
2021/01/18 04:39:59;;;;;;;24.50;17.40;;;1.70;71.20;;;;;;5058297;28;20025;-81
2021/01/18 04:42:28;;;;;;;26.30;17.33;;;1.70;71.40;;;;;;5054570;28;20495;-81
2021/01/18 04:44:55;;;;;;;24.87;17.57;;;1.60;71.40;;;;;;5059236;28;20098;-81
2021/01/18 04:47:25;;;;;;;23.93;16.70;;;1.60;71.40;;;;;;5072184;28;20028;-81
2021/01/18 04:49:55;;;;;;;22.90;16.97;;;1.60;71.50;;;;;;5063075;28;20057;-81
2021/01/18 04:52:40;;;;;;;25.53;16.87;;;1.60;71.60;;;;;;5064662;28;20028;-81
2021/01/18 04:55:15;;;;;;;23.17;16.37;;;1.60;71.60;;;;;;5068282;28;20379;-81
2021/01/18 04:57:52;;;;;;;25.43;18.20;;;1.60;71.60;;;;;;5069642;28;20028;-81
2021/01/18 05:00:22;;;;;;;24.13;17.27;;;1.70;71.40;;;;;;5070452;28;20070;-81
2021/01/18 05:02:52;;;;;;;21.83;16.03;;;1.70;71.40;;;;;;5064051;28;20097;-81
2021/01/18 05:05:28;;;;;;;25.63;16.13;;;1.60;71.50;;;;;;5065716;28;20095;-81
2021/01/18 05:08:02;;;;;;;29.50;18.57;;;1.60;71.40;;;;;;5068353;28;20044;-81
2021/01/18 05:10:30;;;;;;;28.07;18.27;;;1.70;71.50;;;;;;5065413;28;20980;-81
2021/01/18 05:12:59;;;;;;;19.63;14.87;;;1.70;71.30;;;;;;5062790;28;20059;-80
2021/01/18 05:15:25;;;;;;;24.03;18.30;;;1.70;71.80;;;;;;5065921;28;20098;-80
2021/01/18 05:17:58;;;;;;;25.07;17.97;;;1.70;71.50;;;;;;5066584;28;20124;-80
2021/01/18 05:20:23;;;;;;;;;;;1.70;71.60;;;;;;5058745;28;20761;-81
2021/01/18 05:22:51;;;;;;;24.77;16.57;;;1.70;71.50;;;;;;5070343;28;20006;-81
2021/01/18 05:25:18;;;;;;;25.17;17.33;;;1.70;71.40;;;;;;5058233;28;20450;-81
2021/01/18 05:28:07;;;;;;;29.27;18.43;;;1.60;71.30;;;;;;5071028;28;20036;-81
2021/01/18 05:30:37;;;;;;;27.50;18.57;;;1.60;71.60;;;;;;5064998;28;20108;-81
2021/01/18 05:33:11;;;;;;;29.17;18.73;;;1.60;71.60;;;;;;5066127;28;20021;-81
2021/01/18 05:35:39;;;;;;;29.97;18.30;;;1.60;71.50;;;;;;5065900;28;20434;-81
2021/01/18 05:38:10;;;;;;;25.90;17.93;;;1.60;71.60;;;;;;5059917;28;20502;-81
2021/01/18 05:40:39;;;;;;;26.50;18.90;;;1.70;71.50;;;;;;5070179;28;20031;-81
2021/01/18 05:43:05;;;;;;;26.37;17.50;;;1.70;71.40;;;;;;5059419;28;20367;-81
2021/01/18 05:45:34;;;;;;;25.63;16.30;;;1.70;71.10;;;;;;5067896;28;20943;-81
2021/01/18 05:48:01;;;;;;;27.10;18.20;;;1.60;71.40;;;;;;5062591;28;20029;-81
2021/01/18 05:50:27;;;;;;;25.43;18.37;;;1.60;71.40;;;;;;5068672;28;20803;-81
2021/01/18 05:52:54;;;;;;;25.73;17.73;;;1.60;71.30;;;;;;5058521;28;20515;-81
2021/01/18 05:55:21;;;;;;;27.70;17.93;;;1.60;71.20;;;;;;5072864;28;20025;-81
2021/01/18 05:57:50;;;;;;;28.00;17.53;;;1.60;71.40;;;;;;5067147;28;20074;-81
2021/01/18 06:00:24;;;;;;;29.27;18.57;;;1.60;71.30;;;;;;5072592;28;20100;-81
2021/01/18 06:02:50;;;;;;;27.00;18.80;;;1.70;71.30;;;;;;5063934;28;20125;-81
2021/01/18 06:05:22;;;;;;;27.37;19.03;;;1.70;71.30;;;;;;5065860;28;20043;-81
2021/01/18 06:07:49;;;;;;;28.00;18.37;;;1.70;71.10;;;;;;5057211;28;20040;-81
2021/01/18 06:10:17;;;;;;;27.00;18.60;;;1.70;71.20;;;;;;5063396;28;20033;-81
2021/01/18 06:12:43;;;;;;;28.83;17.03;;;1.70;71.10;;;;;;5062082;28;20029;-81
2021/01/18 06:15:15;;;;;;;28.80;17.83;;;1.60;71.20;;;;;;5057577;28;20028;-81
2021/01/18 06:17:51;;;;;;;23.15;15.40;;;1.70;71.50;;;;;;5062979;28;20021;-81
2021/01/18 06:20:21;;;;;;;32.63;19.53;;;1.80;71.80;;;;;;5073407;28;20029;-80
2021/01/18 06:22:57;;;;;;;29.73;20.73;;;1.80;71.50;;;;;;5068810;28;20124;-80
2021/01/18 06:25:25;;;;;;;34.20;22.27;;;1.80;71.80;;;;;;5090969;28;20125;-81
2021/01/18 06:27:51;;;;;;;39.00;24.23;;;1.70;71.40;;;;;;5061454;28;20033;-81
2021/01/18 06:30:23;;;;;;;35.30;24.13;;;1.70;71.70;;;;;;5062400;28;20048;-81
2021/01/18 06:32:55;;;;;;;39.10;25.77;;;1.80;71.60;;;;;;5054926;28;20025;-81
2021/01/18 06:35:23;;;;;;;33.83;22.57;;;1.80;71.40;;;;;;5058125;28;20025;-81
2021/01/18 06:37:54;;;;;;;36.43;21.97;;;1.80;71.60;;;;;;5061351;28;20024;-81
2021/01/18 06:40:26;;;;;;;29.83;19.77;;;1.80;71.50;;;;;;5060833;28;20021;-81
2021/01/18 06:42:53;;;;;;;34.40;21.70;;;1.80;71.30;;;;;;5074260;28;20027;-81
2021/01/18 06:45:20;;;;;;;29.37;19.60;;;1.80;71.30;;;;;;5074196;28;20036;-81
2021/01/18 06:47:46;;;;;;;32.87;20.63;;;1.80;71.20;;;;;;5064950;28;20028;-81
2021/01/18 06:50:13;;;;;;;41.57;25.80;;;1.80;71.40;;;;;;5078882;28;20386;-81
2021/01/18 06:52:46;;;;;;;42.60;27.53;;;1.90;71.40;;;;;;5073383;28;20033;-81
2021/01/18 06:55:24;;;;;;;42.73;26.73;;;1.90;71.30;;;;;;5067098;28;20027;-81
2021/01/18 06:58:14;;;;;;;41.23;25.47;;;1.90;71.10;;;;;;5063587;28;20036;-81
2021/01/18 07:00:41;;;;;;;40.17;25.80;;;1.90;71.70;;;;;;5067564;28;20059;-81
2021/01/18 07:03:40;;;;;;;32.47;22.43;;;1.90;71.20;;;;;;5066463;28;20033;-81
2021/01/18 07:06:17;;;;;;;32.50;20.20;;;2.00;71.40;;;;;;5063166;28;20079;-81
2021/01/18 07:08:50;;;;;;;30.53;19.83;;;1.90;71.00;;;;;;5070162;28;20475;-81
2021/01/18 07:11:18;;;;;;;31.50;19.83;;;1.90;71.00;;;;;;5073552;28;20489;-81
2021/01/18 07:13:49;;;;;;;27.80;17.70;;;1.90;71.20;;;;;;5064718;28;20037;-81
2021/01/18 07:16:20;;;;;;;31.80;19.20;;;1.90;71.20;;;;;;5072180;28;20029;-81
2021/01/18 07:18:54;;;;;;;28.37;18.37;;;1.80;71.30;;;;;;5069744;28;20036;-80
2021/01/18 07:21:21;;;;;;;33.23;19.07;;;1.70;71.50;;;;;;5060913;28;20291;-80
2021/01/18 07:23:56;;;;;;;25.50;17.70;;;1.70;71.60;;;;;;5054025;28;20451;-80
2021/01/18 07:26:46;;;;;;;25.17;17.40;;;1.70;71.80;;;;;;5082185;28;20025;-80
2021/01/18 07:29:14;;;;;;;27.17;18.73;;;1.70;72.00;;;;;;5058586;28;20033;-80
2021/01/18 07:31:46;;;;;;;29.03;18.97;;;1.70;71.80;;;;;;5069325;28;20056;-80
2021/01/18 07:34:24;;;;;;;26.87;19.40;;;1.80;71.90;;;;;;5069263;28;20037;-80
2021/01/18 07:36:51;;;;;;;27.10;18.40;;;1.80;71.80;;;;;;5082351;28;20029;-80
2021/01/18 07:39:24;;;;;;;29.53;18.53;;;1.80;71.60;;;;;;5064270;28;20055;-80
2021/01/18 07:41:50;;;;;;;25.90;18.47;;;1.80;71.60;;;;;;5065608;28;20035;-80
2021/01/18 07:44:36;;;;;;;26.10;18.63;;;1.80;71.60;;;;;;5067411;28;20407;-80
2021/01/18 07:47:07;;;;;;;23.70;17.77;;;1.80;71.60;;;;;;5070433;28;20063;-80
2021/01/18 07:49:35;;;;;;;27.37;19.10;;;1.80;71.40;;;;;;5061632;28;20643;-81
2021/01/18 07:52:19;;;;;;;30.00;19.37;;;1.80;71.60;;;;;;5071390;28;20033;-80
2021/01/18 07:54:46;;;;;;;24.23;17.93;;;1.90;71.60;;;;;;5071709;28;20024;-80
2021/01/18 07:57:28;;;;;;;26.73;18.97;;;2.00;71.40;;;;;;5064723;28;20043;-80
2021/01/18 08:00:26;;;;;;;24.43;17.70;;;2.00;71.30;;;;;;5070140;28;20036;-80
2021/01/18 08:03:12;;;;;;;32.10;19.20;;;2.10;71.20;;;;;;5068731;28;20037;-80
2021/01/18 08:05:39;;;;;;;35.97;20.67;;;2.10;71.20;;;;;;5063385;28;20119;-80
2021/01/18 08:08:16;;;;;;;27.00;19.63;;;2.10;71.20;;;;;;5056341;28;20489;-80
2021/01/18 08:11:02;;;;;;;25.17;19.00;;;2.20;71.30;;;;;;5068467;28;20463;-81
2021/01/18 08:13:43;;;;;;;27.87;19.77;;;2.20;71.30;;;;;;5058966;28;20036;-81
2021/01/18 08:16:16;;;;;;;27.73;19.70;;;2.30;71.30;;;;;;5063351;28;20040;-81
2021/01/18 08:19:17;;;;;;;26.50;19.57;;;2.40;71.20;;;;;;5067668;28;20044;-81
2021/01/18 08:22:13;;;;;;;29.13;20.57;;;2.40;71.00;;;;;;5065035;28;20042;-81
2021/01/18 08:24:39;;;;;;;27.57;19.67;;;2.40;70.90;;;;;;5059873;28;20029;-81
2021/01/18 08:27:06;;;;;;;29.20;19.73;;;2.40;70.90;;;;;;5073199;28;20085;-81
2021/01/18 08:29:45;;;;;;;27.07;20.20;;;2.50;70.90;;;;;;5063142;28;20040;-81
2021/01/18 08:32:23;;;;;;;28.80;20.50;;;2.40;70.70;;;;;;5056018;28;20039;-81
2021/01/18 08:34:57;;;;;;;28.27;20.40;;;2.50;70.90;;;;;;5067834;28;20047;-81
2021/01/18 08:37:25;;;;;;;26.20;19.27;;;2.50;70.70;;;;;;5047878;28;20073;-81
2021/01/18 08:39:56;;;;;;;29.93;21.43;;;2.60;70.90;;;;;;5071122;28;20039;-81
2021/01/18 08:42:26;;;;;;;28.40;20.60;;;2.60;71.10;;;;;;5063194;28;20029;-81
2021/01/18 08:45:06;;;;;;;35.77;24.77;;;2.70;70.90;;;;;;5063391;28;20037;-81
2021/01/18 08:47:37;;;;;;;30.90;22.53;;;2.70;70.80;;;;;;5071705;28;20036;-81
2021/01/18 08:50:22;;;;;;;37.03;25.13;;;2.70;70.60;;;;;;5065110;28;20066;-81
2021/01/18 08:52:54;;;;;;;29.90;20.10;;;2.70;70.60;;;;;;5062940;28;20114;-81
2021/01/18 08:55:28;;;;;;;25.57;19.40;;;2.70;70.60;;;;;;5067797;28;20035;-81
2021/01/18 08:57:59;;;;;;;31.67;20.43;;;2.80;70.70;;;;;;5065576;28;20020;-81
2021/01/18 09:00:37;;;;;;;28.30;18.73;;;2.80;70.60;;;;;;5062477;28;20032;-81
2021/01/18 09:03:03;;;;;;;24.60;19.30;;;2.80;70.40;;;;;;5064946;28;20047;-81
2021/01/18 09:05:29;;;;;;;31.00;22.23;;;2.80;70.30;;;;;;5066463;28;20610;-81
2021/01/18 09:07:56;;;;;;;29.83;20.50;;;2.90;70.40;;;;;;5067788;28;20029;-81
2021/01/18 09:10:23;;;;;;;29.67;20.27;;;2.90;70.40;;;;;;5058381;28;20021;-81
2021/01/18 09:12:50;;;;;;;28.20;18.50;;;2.90;70.40;;;;;;5061035;28;20029;-81
2021/01/18 09:15:18;;;;;;;25.50;18.37;;;2.90;70.40;;;;;;5061496;28;20017;-81
2021/01/18 09:17:47;;;;;;;29.67;21.00;;;3.00;70.40;;;;;;5067648;28;20547;-81
2021/01/18 09:20:14;;;;;;;29.23;20.87;;;3.00;70.30;;;;;;5082072;28;20470;-81
2021/01/18 09:22:43;;;;;;;29.80;21.03;;;3.00;70.30;;;;;;5060621;28;20547;-81
2021/01/18 09:25:11;;;;;;;31.13;20.60;;;3.10;70.30;;;;;;5059594;28;20021;-81
2021/01/18 09:27:38;;;;;;;26.37;20.37;;;3.10;70.20;;;;;;5068900;28;20056;-81
2021/01/18 09:30:07;;;;;;;28.67;20.43;;;3.10;70.20;;;;;;5062775;28;20101;-81
2021/01/18 09:32:34;;;;;;;34.93;23.23;;;3.20;70.10;;;;;;5072617;28;20040;-81
2021/01/18 09:35:09;;;;;;;38.53;24.17;;;3.20;70.10;;;;;;5062621;28;20086;-81
2021/01/18 09:37:42;;;;;;;29.30;21.57;;;3.30;69.90;;;;;;5072221;28;20036;-81
2021/01/18 09:40:09;;;;;;;27.20;21.17;;;3.20;69.80;;;;;;5063881;28;20036;-81
2021/01/18 09:42:38;;;;;;;31.90;21.30;;;3.20;70.10;;;;;;5066944;28;20076;-81
2021/01/18 09:45:09;;;;;;;28.63;21.00;;;3.10;70.20;;;;;;5057729;28;20028;-81
2021/01/18 09:47:35;;;;;;;34.73;22.63;;;3.20;70.30;;;;;;5056851;28;20044;-81
2021/01/18 09:50:10;;;;;;;27.77;21.60;;;3.20;70.20;;;;;;5064812;28;20063;-81
2021/01/18 09:52:43;;;;;;;31.60;22.87;;;3.20;70.10;;;;;;5067429;28;20032;-81
2021/01/18 09:55:17;;;;;;;30.40;22.33;;;3.20;70.10;;;;;;5061419;28;20032;-81
2021/01/18 09:57:45;;;;;;;28.20;22.27;;;3.20;70.20;;;;;;5067455;28;20477;-81
2021/01/18 10:00:13;;;;;;;30.20;22.37;;;3.30;70.20;;;;;;5061502;28;20033;-81
2021/01/18 10:02:47;;;;;;;26.73;20.53;;;3.30;70.10;;;;;;5062414;28;20044;-81
2021/01/18 10:05:21;;;;;;;27.70;20.10;;;3.30;70.10;;;;;;5062145;28;20739;-82
2021/01/18 10:07:51;;;;;;;33.63;23.93;;;3.40;70.10;;;;;;5065994;28;20032;-82
2021/01/18 10:10:17;;;;;;;34.90;23.90;;;3.40;69.90;;;;;;5073542;28;20027;-82
2021/01/18 10:12:50;;;;;;;32.87;20.77;;;3.50;70.10;;;;;;5068517;28;20124;-82
2021/01/18 10:15:23;;;;;;;29.83;22.80;;;3.60;70.20;;;;;;5075103;28;20029;-82
2021/01/18 10:17:49;;;;;;;31.07;23.70;;;3.70;70.10;;;;;;5073552;28;20390;-82
2021/01/18 10:20:27;;;;;;;33.07;23.80;;;3.80;69.90;;;;;;5058790;28;20025;-82
2021/01/18 10:22:54;;;;;;;35.43;22.97;;;3.90;69.70;;;;;;5069540;28;20032;-82
2021/01/18 10:25:20;;;;;;;30.20;22.83;;;3.90;69.50;;;;;;5076271;28;20048;-82
2021/01/18 10:27:53;;;;;;;29.10;21.80;;;3.80;69.60;;;;;;5068901;28;20388;-82
2021/01/18 10:30:27;;;;;;;32.73;22.80;;;3.70;69.70;;;;;;5068782;28;20049;-82
2021/01/18 10:32:55;;;;;;;35.03;22.03;;;3.80;69.80;;;;;;5061601;28;20092;-82
2021/01/18 10:35:31;;;;;;;36.80;23.40;;;3.80;69.70;;;;;;5070491;28;20469;-82
2021/01/18 10:38:13;;;;;;;42.60;26.27;;;3.90;69.80;;;;;;5076002;28;20017;-82
2021/01/18 10:40:40;;;;;;;39.40;25.52;;;3.90;69.50;;;;;;5070997;28;20060;-82
2021/01/18 10:43:06;;;;;;;36.53;26.93;;;3.90;69.40;;;;;;5078784;28;20423;-82
2021/01/18 10:45:38;;;;;;;41.50;27.70;;;3.90;69.30;;;;;;5065156;28;20028;-82
2021/01/18 10:48:05;;;;;;;39.00;26.03;;;3.90;69.50;;;;;;5068366;28;20035;-82
2021/01/18 10:50:31;;;;;;;42.33;23.93;;;3.90;69.40;;;;;;5075360;28;20021;-82
2021/01/18 10:53:03;;;;;;;42.27;23.43;;;3.90;69.40;;;;;;5095523;28;20017;-82
2021/01/18 10:55:29;;;;;;;38.10;26.43;;;3.90;69.60;;;;;;5080333;28;20020;-82
2021/01/18 10:57:55;;;;;;;41.43;24.97;;;4.00;69.50;;;;;;5081322;28;20356;-81
2021/01/18 11:00:30;;;;;;;33.33;23.33;;;4.10;69.20;;;;;;5079894;28;20064;-82
2021/01/18 11:03:02;;;;;;;32.63;24.30;;;4.10;69.00;;;;;;5086181;28;20021;-82
2021/01/18 11:05:32;;;;;;;30.47;23.10;;;4.10;69.20;;;;;;5076921;28;20032;-82
2021/01/18 11:08:00;;;;;;;38.53;23.20;;;4.20;69.20;;;;;;5081874;28;20028;-82
2021/01/18 11:10:28;;;;;;;29.10;23.13;;;4.10;68.80;;;;;;5066352;28;20028;-82
2021/01/18 11:13:01;;;;;;;28.87;22.03;;;4.20;69.00;;;;;;5069213;28;20440;-82
2021/01/18 11:15:35;;;;;;;29.40;22.27;;;4.20;68.80;;;;;;5069117;28;20031;-82
2021/01/18 11:18:01;;;;;;;35.07;21.60;;;4.20;69.00;;;;;;5057340;28;20029;-82
2021/01/18 11:20:29;;;;;;;33.57;22.47;;;4.30;68.80;;;;;;5064841;28;20112;-82
2021/01/18 11:22:55;;;;;;;33.70;23.93;;;4.30;68.80;;;;;;5060330;28;20029;-82
2021/01/18 11:25:21;;;;;;;37.87;22.67;;;4.40;68.70;;;;;;5068272;28;20029;-82
2021/01/18 11:27:47;;;;;;;28.63;20.60;;;4.50;68.50;;;;;;5073126;28;20043;-82
2021/01/18 11:30:14;;;;;;;27.93;19.90;;;4.60;68.30;;;;;;5063928;28;20044;-83
2021/01/18 11:32:41;;;;;;;30.67;21.53;;;4.60;68.40;;;;;;5069007;28;20035;-82
2021/01/18 11:35:08;;;;;;;26.43;19.70;;;4.70;68.30;;;;;;5071837;28;20075;-82
2021/01/18 11:37:37;;;;;;;24.87;19.30;;;4.80;68.20;;;;;;5062949;28;20519;-82
2021/01/18 11:40:06;;;;;;;24.93;18.77;;;4.90;67.90;;;;;;5066709;28;20414;-82
2021/01/18 11:42:33;;;;;;;27.97;21.07;;;5.10;67.90;;;;;;5069919;28;20031;-82
2021/01/18 11:45:00;;;;;;;33.40;22.30;;;5.20;67.80;;;;;;5070494;28;20801;-82
2021/01/18 11:47:40;;;;;;;31.27;24.50;;;5.20;67.60;;;;;;5067606;28;20020;-82
2021/01/18 11:50:09;;;;;;;30.37;23.60;;;5.20;67.90;;;;;;5072460;28;20028;-82
2021/01/18 11:52:45;;;;;;;29.77;23.07;;;5.30;67.70;;;;;;5073584;28;20036;-82
2021/01/18 11:55:12;;;;;;;32.90;24.17;;;5.30;67.80;;;;;;5070333;28;20040;-83
2021/01/18 11:57:46;;;;;;;34.63;24.90;;;5.30;67.70;;;;;;5067646;28;20040;-82
2021/01/18 12:00:26;;;;;;;33.17;24.70;;;5.30;67.60;;;;;;5064409;28;20119;-82
2021/01/18 12:02:56;;;;;;;43.77;24.20;;;5.40;67.60;;;;;;5072121;28;20063;-82
2021/01/18 12:05:25;;;;;;;37.27;26.10;;;5.40;67.70;;;;;;5056620;28;20376;-82
2021/01/18 12:07:53;;;;;;;36.70;25.07;;;5.40;67.60;;;;;;5067508;28;20534;-82
2021/01/18 12:10:18;;;;;;;34.90;23.50;;;5.40;67.60;;;;;;5068068;28;20037;-82
2021/01/18 12:12:44;;;;;;;39.37;26.07;;;5.50;67.60;;;;;;5069046;28;20150;-82
2021/01/18 12:15:10;;;;;;;37.30;26.00;;;5.50;67.50;;;;;;5068307;28;20056;-82
2021/01/18 12:17:38;;;;;;;33.97;24.63;;;5.50;67.40;;;;;;5077096;28;20035;-82
2021/01/18 12:20:05;;;;;;;31.47;23.67;;;5.50;67.40;;;;;;5075203;28;20093;-83
2021/01/18 12:22:31;;;;;;;31.23;24.67;;;5.60;67.20;;;;;;5073654;28;20028;-83
2021/01/18 12:24:56;;;;;;;38.13;24.87;;;5.70;67.20;;;;;;5085228;28;20062;-83
2021/01/18 12:27:22;;;;;;;30.10;23.20;;;5.80;67.10;;;;;;5070268;28;20407;-83
2021/01/18 12:29:48;;;;;;;32.03;23.63;;;5.90;66.90;;;;;;5075411;28;20115;-83
2021/01/18 12:32:13;;;;;;;35.53;24.70;;;6.00;66.70;;;;;;5073259;28;20056;-82
2021/01/18 12:34:39;;;;;;;36.93;26.30;;;6.10;66.50;;;;;;5075006;28;20032;-82
2021/01/18 12:37:05;;;;;;;38.63;28.00;;;6.10;66.60;;;;;;5064516;28;20077;-82
2021/01/18 12:39:30;;;;;;;37.17;28.57;;;6.10;66.50;;;;;;5061706;28;20430;-82
2021/01/18 12:41:56;;;;;;;37.07;29.63;;;6.00;66.50;;;;;;5074575;28;20034;-82
2021/01/18 12:44:22;;;;;;;40.70;26.77;;;6.00;66.60;;;;;;5062820;28;20029;-82
2021/01/18 12:46:49;;;;;;;37.43;28.00;;;5.90;66.80;;;;;;5073717;28;20028;-83
2021/01/18 12:49:15;;;;;;;34.63;23.60;;;5.90;66.70;;;;;;5071428;28;20037;-83
2021/01/18 12:51:41;;;;;;;33.57;23.03;;;5.90;66.70;;;;;;5066629;28;20052;-83
2021/01/18 12:54:07;;;;;;;34.90;27.00;;;6.00;66.80;;;;;;5059746;28;20028;-83
2021/01/18 12:56:33;;;;;;;33.70;25.70;;;6.00;66.70;;;;;;5062654;28;20017;-83